Terminal Aerodrome Forecast
Issued by NWS

Home | Current Version | Previous Version | Text Only | Print | Product List | Glossary On
Versions: 1 2 3 4 5 6 7 8 9 10 11 12 13 14 15 16 17 18 19
740
FTUS43 KGRR 201740
TAFJXN
TAF
KJXN 201740Z 2018/2118 07004KT 2SM BR VCSH OVC003
     FM210200 21004KT 1/2SM FG OVC003
     FM211200 15005KT 1/2SM FG OVC003
     FM211700 18007KT 4SM BR BKN025=

USA.gov is the U.S. government's official web portal to all federal, state and local government web resources and services.